sensor_id;sensor_type;location;lat;lon;timestamp;P1;durP1;ratioP1;P2;durP2;ratioP2
19733;SDS011;10018;51.230;7.860;2022-07-23T00:02:24;21.63;;;15.87;;
19733;SDS011;10018;51.230;7.860;2022-07-23T00:04:49;21.27;;;14.80;;
19733;SDS011;10018;51.230;7.860;2022-07-23T00:07:15;21.53;;;15.63;;
19733;SDS011;10018;51.230;7.860;2022-07-23T00:09:41;20.50;;;15.70;;
19733;SDS011;10018;51.230;7.860;2022-07-23T00:12:06;22.13;;;15.70;;
19733;SDS011;10018;51.230;7.860;2022-07-23T00:14:32;20.40;;;15.37;;
19733;SDS011;10018;51.230;7.860;2022-07-23T00:16:58;22.00;;;15.40;;
19733;SDS011;10018;51.230;7.860;2022-07-23T00:19:23;20.63;;;15.50;;
19733;SDS011;10018;51.230;7.860;2022-07-23T00:21:48;23.63;;;16.07;;
19733;SDS011;10018;51.230;7.860;2022-07-23T00:24:14;23.20;;;15.03;;
19733;SDS011;10018;51.230;7.860;2022-07-23T00:26:39;21.63;;;15.67;;
19733;SDS011;10018;51.230;7.860;2022-07-23T00:29:05;23.27;;;16.07;;
19733;SDS011;10018;51.230;7.860;2022-07-23T00:31:31;26.67;;;15.73;;
19733;SDS011;10018;51.230;7.860;2022-07-23T00:33:56;23.47;;;15.50;;
19733;SDS011;10018;51.230;7.860;2022-07-23T00:36:22;24.10;;;16.10;;
19733;SDS011;10018;51.230;7.860;2022-07-23T00:38:49;24.53;;;16.10;;
19733;SDS011;10018;51.230;7.860;2022-07-23T00:41:15;22.50;;;15.30;;
19733;SDS011;10018;51.230;7.860;2022-07-23T00:43:40;23.97;;;16.50;;
19733;SDS011;10018;51.230;7.860;2022-07-23T00:46:06;24.00;;;16.47;;
19733;SDS011;10018;51.230;7.860;2022-07-23T00:48:31;25.93;;;17.67;;
19733;SDS011;10018;51.230;7.860;2022-07-23T00:50:57;25.80;;;18.17;;
19733;SDS011;10018;51.230;7.860;2022-07-23T00:53:23;25.50;;;17.90;;
19733;SDS011;10018;51.230;7.860;2022-07-23T00:55:49;28.57;;;19.23;;
19733;SDS011;10018;51.230;7.860;2022-07-23T00:58:15;28.37;;;18.40;;
19733;SDS011;10018;51.230;7.860;2022-07-23T01:00:41;26.17;;;18.03;;
19733;SDS011;10018;51.230;7.860;2022-07-23T01:03:07;29.40;;;19.27;;
19733;SDS011;10018;51.230;7.860;2022-07-23T01:05:33;28.83;;;18.50;;
19733;SDS011;10018;51.230;7.860;2022-07-23T01:07:58;30.90;;;19.67;;
19733;SDS011;10018;51.230;7.860;2022-07-23T01:10:25;28.47;;;18.80;;
19733;SDS011;10018;51.230;7.860;2022-07-23T01:12:57;27.83;;;19.10;;
19733;SDS011;10018;51.230;7.860;2022-07-23T01:15:41;28.87;;;18.97;;
19733;SDS011;10018;51.230;7.860;2022-07-23T01:18:07;28.67;;;19.50;;
19733;SDS011;10018;51.230;7.860;2022-07-23T01:20:33;28.07;;;18.93;;
19733;SDS011;10018;51.230;7.860;2022-07-23T01:22:58;29.77;;;19.37;;
19733;SDS011;10018;51.230;7.860;2022-07-23T01:25:24;30.60;;;20.00;;
19733;SDS011;10018;51.230;7.860;2022-07-23T01:27:51;31.57;;;21.57;;
19733;SDS011;10018;51.230;7.860;2022-07-23T01:30:17;33.13;;;20.77;;
19733;SDS011;10018;51.230;7.860;2022-07-23T01:32:43;33.07;;;22.27;;
19733;SDS011;10018;51.230;7.860;2022-07-23T01:35:09;34.77;;;21.40;;
19733;SDS011;10018;51.230;7.860;2022-07-23T01:37:35;36.17;;;21.50;;
19733;SDS011;10018;51.230;7.860;2022-07-23T01:40:01;35.07;;;21.17;;
19733;SDS011;10018;51.230;7.860;2022-07-23T01:42:26;31.40;;;20.73;;
19733;SDS011;10018;51.230;7.860;2022-07-23T01:44:52;34.90;;;22.07;;
19733;SDS011;10018;51.230;7.860;2022-07-23T01:47:17;32.43;;;20.77;;
19733;SDS011;10018;51.230;7.860;2022-07-23T01:49:43;35.40;;;21.93;;
19733;SDS011;10018;51.230;7.860;2022-07-23T01:52:08;34.83;;;21.27;;
19733;SDS011;10018;51.230;7.860;2022-07-23T01:54:36;31.73;;;21.70;;
19733;SDS011;10018;51.230;7.860;2022-07-23T01:57:02;35.60;;;20.97;;
19733;SDS011;10018;51.230;7.860;2022-07-23T01:59:28;32.37;;;20.63;;
19733;SDS011;10018;51.230;7.860;2022-07-23T02:01:54;33.47;;;21.13;;
19733;SDS011;10018;51.230;7.860;2022-07-23T02:04:20;32.67;;;20.43;;
19733;SDS011;10018;51.230;7.860;2022-07-23T02:06:47;32.77;;;21.90;;
19733;SDS011;10018;51.230;7.860;2022-07-23T02:09:13;33.67;;;21.00;;
19733;SDS011;10018;51.230;7.860;2022-07-23T02:11:39;28.57;;;18.13;;
19733;SDS011;10018;51.230;7.860;2022-07-23T02:14:05;34.87;;;23.00;;
19733;SDS011;10018;51.230;7.860;2022-07-23T02:16:30;35.90;;;22.07;;
19733;SDS011;10018;51.230;7.860;2022-07-23T02:18:56;34.70;;;22.33;;
19733;SDS011;10018;51.230;7.860;2022-07-23T02:21:22;37.60;;;22.73;;
19733;SDS011;10018;51.230;7.860;2022-07-23T02:23:47;37.10;;;22.87;;
19733;SDS011;10018;51.230;7.860;2022-07-23T02:26:13;35.33;;;21.63;;
19733;SDS011;10018;51.230;7.860;2022-07-23T02:28:38;36.17;;;22.93;;
19733;SDS011;10018;51.230;7.860;2022-07-23T02:31:04;41.83;;;24.40;;
19733;SDS011;10018;51.230;7.860;2022-07-23T02:33:31;38.10;;;23.37;;
19733;SDS011;10018;51.230;7.860;2022-07-23T02:35:57;43.27;;;23.10;;
19733;SDS011;10018;51.230;7.860;2022-07-23T02:38:23;39.87;;;23.07;;
19733;SDS011;10018;51.230;7.860;2022-07-23T02:40:48;36.83;;;22.37;;
19733;SDS011;10018;51.230;7.860;2022-07-23T02:43:14;40.17;;;22.70;;
19733;SDS011;10018;51.230;7.860;2022-07-23T02:45:39;38.27;;;23.70;;
19733;SDS011;10018;51.230;7.860;2022-07-23T02:48:05;40.53;;;23.93;;
19733;SDS011;10018;51.230;7.860;2022-07-23T02:50:30;37.93;;;23.00;;
19733;SDS011;10018;51.230;7.860;2022-07-23T02:52:56;37.93;;;22.97;;
19733;SDS011;10018;51.230;7.860;2022-07-23T02:55:21;41.50;;;23.07;;
19733;SDS011;10018;51.230;7.860;2022-07-23T02:57:47;38.13;;;23.13;;
19733;SDS011;10018;51.230;7.860;2022-07-23T03:00:12;35.30;;;21.57;;
19733;SDS011;10018;51.230;7.860;2022-07-23T03:02:38;40.27;;;21.97;;
19733;SDS011;10018;51.230;7.860;2022-07-23T03:05:04;37.63;;;24.13;;
19733;SDS011;10018;51.230;7.860;2022-07-23T03:07:30;37.43;;;22.77;;
19733;SDS011;10018;51.230;7.860;2022-07-23T03:09:55;40.70;;;22.10;;
19733;SDS011;10018;51.230;7.860;2022-07-23T03:12:21;38.13;;;23.13;;
19733;SDS011;10018;51.230;7.860;2022-07-23T03:14:46;38.83;;;23.87;;
19733;SDS011;10018;51.230;7.860;2022-07-23T03:17:12;40.07;;;22.67;;
19733;SDS011;10018;51.230;7.860;2022-07-23T03:19:37;39.30;;;23.13;;
19733;SDS011;10018;51.230;7.860;2022-07-23T03:22:03;42.17;;;23.57;;
19733;SDS011;10018;51.230;7.860;2022-07-23T03:24:29;39.83;;;23.00;;
19733;SDS011;10018;51.230;7.860;2022-07-23T03:27:13;38.20;;;22.80;;
19733;SDS011;10018;51.230;7.860;2022-07-23T03:29:39;36.87;;;22.23;;
19733;SDS011;10018;51.230;7.860;2022-07-23T03:32:05;40.40;;;22.87;;
19733;SDS011;10018;51.230;7.860;2022-07-23T03:34:30;34.67;;;21.13;;
19733;SDS011;10018;51.230;7.860;2022-07-23T03:36:56;38.40;;;21.83;;
19733;SDS011;10018;51.230;7.860;2022-07-23T03:39:21;38.90;;;22.23;;
19733;SDS011;10018;51.230;7.860;2022-07-23T03:41:47;35.03;;;21.77;;
19733;SDS011;10018;51.230;7.860;2022-07-23T03:44:12;42.43;;;22.27;;
19733;SDS011;10018;51.230;7.860;2022-07-23T03:46:38;34.90;;;22.37;;
19733;SDS011;10018;51.230;7.860;2022-07-23T03:49:03;38.60;;;22.17;;
19733;SDS011;10018;51.230;7.860;2022-07-23T03:51:28;36.00;;;21.67;;
19733;SDS011;10018;51.230;7.860;2022-07-23T03:53:54;37.73;;;21.50;;
19733;SDS011;10018;51.230;7.860;2022-07-23T03:56:20;37.07;;;22.60;;
19733;SDS011;10018;51.230;7.860;2022-07-23T03:58:46;37.20;;;21.73;;
19733;SDS011;10018;51.230;7.860;2022-07-23T04:01:12;37.27;;;21.33;;
19733;SDS011;10018;51.230;7.860;2022-07-23T04:03:37;38.73;;;22.07;;
19733;SDS011;10018;51.230;7.860;2022-07-23T04:06:03;38.53;;;22.10;;
19733;SDS011;10018;51.230;7.860;2022-07-23T04:08:28;39.80;;;22.83;;
19733;SDS011;10018;51.230;7.860;2022-07-23T04:10:54;40.60;;;23.17;;
19733;SDS011;10018;51.230;7.860;2022-07-23T04:13:20;37.20;;;23.33;;
19733;SDS011;10018;51.230;7.860;2022-07-23T04:15:45;36.90;;;22.93;;
19733;SDS011;10018;51.230;7.860;2022-07-23T04:18:11;37.87;;;22.53;;
19733;SDS011;10018;51.230;7.860;2022-07-23T04:20:37;40.93;;;21.93;;
19733;SDS011;10018;51.230;7.860;2022-07-23T04:23:02;32.17;;;19.00;;
19733;SDS011;10018;51.230;7.860;2022-07-23T04:25:28;36.00;;;22.17;;
19733;SDS011;10018;51.230;7.860;2022-07-23T04:27:53;36.97;;;21.43;;
19733;SDS011;10018;51.230;7.860;2022-07-23T04:30:19;36.93;;;22.00;;
19733;SDS011;10018;51.230;7.860;2022-07-23T04:32:45;35.63;;;20.70;;
19733;SDS011;10018;51.230;7.860;2022-07-23T04:35:10;37.47;;;20.67;;
19733;SDS011;10018;51.230;7.860;2022-07-23T04:37:36;34.60;;;20.43;;
19733;SDS011;10018;51.230;7.860;2022-07-23T04:40:01;38.17;;;21.73;;
19733;SDS011;10018;51.230;7.860;2022-07-23T04:42:27;37.33;;;20.90;;
19733;SDS011;10018;51.230;7.860;2022-07-23T04:44:52;35.27;;;20.80;;
19733;SDS011;10018;51.230;7.860;2022-07-23T04:47:18;32.00;;;20.20;;
19733;SDS011;10018;51.230;7.860;2022-07-23T04:49:43;33.63;;;20.73;;
19733;SDS011;10018;51.230;7.860;2022-07-23T04:52:09;33.17;;;21.57;;
19733;SDS011;10018;51.230;7.860;2022-07-23T04:54:34;34.47;;;20.77;;
19733;SDS011;10018;51.230;7.860;2022-07-23T04:57:00;32.27;;;20.73;;
19733;SDS011;10018;51.230;7.860;2022-07-23T04:59:25;33.33;;;20.67;;
19733;SDS011;10018;51.230;7.860;2022-07-23T05:01:51;31.37;;;19.60;;
19733;SDS011;10018;51.230;7.860;2022-07-23T05:04:16;30.77;;;18.90;;
19733;SDS011;10018;51.230;7.860;2022-07-23T05:06:42;30.13;;;19.50;;
19733;SDS011;10018;51.230;7.860;2022-07-23T05:09:07;31.03;;;19.90;;
19733;SDS011;10018;51.230;7.860;2022-07-23T05:11:33;30.47;;;19.00;;
19733;SDS011;10018;51.230;7.860;2022-07-23T05:13:58;28.53;;;18.73;;
19733;SDS011;10018;51.230;7.860;2022-07-23T05:16:24;27.53;;;18.40;;
19733;SDS011;10018;51.230;7.860;2022-07-23T05:18:49;31.37;;;19.03;;
19733;SDS011;10018;51.230;7.860;2022-07-23T05:21:15;29.67;;;19.40;;
19733;SDS011;10018;51.230;7.860;2022-07-23T05:23:40;33.50;;;20.03;;
19733;SDS011;10018;51.230;7.860;2022-07-23T05:26:06;31.17;;;19.97;;
19733;SDS011;10018;51.230;7.860;2022-07-23T05:28:31;28.27;;;19.20;;
19733;SDS011;10018;51.230;7.860;2022-07-23T05:30:57;34.50;;;20.60;;
19733;SDS011;10018;51.230;7.860;2022-07-23T05:33:22;32.87;;;21.03;;
19733;SDS011;10018;51.230;7.860;2022-07-23T05:35:48;33.13;;;20.43;;
19733;SDS011;10018;51.230;7.860;2022-07-23T05:38:13;32.37;;;19.90;;
19733;SDS011;10018;51.230;7.860;2022-07-23T05:40:39;32.47;;;21.17;;
19733;SDS011;10018;51.230;7.860;2022-07-23T05:43:04;34.33;;;21.53;;
19733;SDS011;10018;51.230;7.860;2022-07-23T05:45:30;31.67;;;21.07;;
19733;SDS011;10018;51.230;7.860;2022-07-23T05:47:55;31.20;;;20.40;;
19733;SDS011;10018;51.230;7.860;2022-07-23T05:50:21;29.20;;;19.23;;
19733;SDS011;10018;51.230;7.860;2022-07-23T05:52:46;30.93;;;18.83;;
19733;SDS011;10018;51.230;7.860;2022-07-23T05:55:12;29.03;;;18.93;;
19733;SDS011;10018;51.230;7.860;2022-07-23T05:57:38;29.47;;;18.67;;
19733;SDS011;10018;51.230;7.860;2022-07-23T06:00:05;28.57;;;18.03;;
19733;SDS011;10018;51.230;7.860;2022-07-23T06:02:31;29.53;;;19.93;;
19733;SDS011;10018;51.230;7.860;2022-07-23T06:04:57;29.93;;;19.67;;
19733;SDS011;10018;51.230;7.860;2022-07-23T06:07:22;31.43;;;20.40;;
19733;SDS011;10018;51.230;7.860;2022-07-23T06:09:48;31.10;;;20.37;;
19733;SDS011;10018;51.230;7.860;2022-07-23T06:12:14;29.63;;;20.20;;
19733;SDS011;10018;51.230;7.860;2022-07-23T06:14:40;28.60;;;20.40;;
19733;SDS011;10018;51.230;7.860;2022-07-23T06:17:06;33.30;;;21.30;;
19733;SDS011;10018;51.230;7.860;2022-07-23T06:19:32;29.77;;;20.43;;
19733;SDS011;10018;51.230;7.860;2022-07-23T06:21:57;31.87;;;22.30;;
19733;SDS011;10018;51.230;7.860;2022-07-23T06:24:23;27.60;;;18.90;;
19733;SDS011;10018;51.230;7.860;2022-07-23T06:26:48;26.77;;;18.40;;
19733;SDS011;10018;51.230;7.860;2022-07-23T06:29:14;30.00;;;19.57;;
19733;SDS011;10018;51.230;7.860;2022-07-23T06:31:39;28.83;;;18.73;;
19733;SDS011;10018;51.230;7.860;2022-07-23T06:34:05;27.73;;;18.77;;
19733;SDS011;10018;51.230;7.860;2022-07-23T06:36:30;28.40;;;18.70;;
19733;SDS011;10018;51.230;7.860;2022-07-23T06:38:56;28.37;;;18.67;;
19733;SDS011;10018;51.230;7.860;2022-07-23T06:41:21;27.07;;;18.60;;
19733;SDS011;10018;51.230;7.860;2022-07-23T06:43:50;28.33;;;18.27;;
19733;SDS011;10018;51.230;7.860;2022-07-23T06:46:15;27.20;;;17.77;;
19733;SDS011;10018;51.230;7.860;2022-07-23T06:48:41;28.30;;;17.43;;
19733;SDS011;10018;51.230;7.860;2022-07-23T06:51:07;26.93;;;17.47;;
19733;SDS011;10018;51.230;7.860;2022-07-23T06:53:32;26.37;;;17.27;;
19733;SDS011;10018;51.230;7.860;2022-07-23T06:55:58;23.87;;;16.27;;
19733;SDS011;10018;51.230;7.860;2022-07-23T06:58:23;23.93;;;16.47;;
19733;SDS011;10018;51.230;7.860;2022-07-23T07:00:49;23.67;;;16.20;;
19733;SDS011;10018;51.230;7.860;2022-07-23T07:03:16;24.97;;;16.40;;
19733;SDS011;10018;51.230;7.860;2022-07-23T07:05:42;21.70;;;15.80;;
19733;SDS011;10018;51.230;7.860;2022-07-23T07:08:07;23.63;;;16.03;;
19733;SDS011;10018;51.230;7.860;2022-07-23T07:10:33;20.50;;;14.67;;
19733;SDS011;10018;51.230;7.860;2022-07-23T07:12:58;21.10;;;13.23;;
19733;SDS011;10018;51.230;7.860;2022-07-23T07:15:24;22.67;;;14.70;;
19733;SDS011;10018;51.230;7.860;2022-07-23T07:17:49;20.47;;;13.70;;
19733;SDS011;10018;51.230;7.860;2022-07-23T07:20:15;17.30;;;12.40;;
19733;SDS011;10018;51.230;7.860;2022-07-23T07:22:40;18.63;;;13.20;;
19733;SDS011;10018;51.230;7.860;2022-07-23T07:25:06;19.10;;;12.73;;
19733;SDS011;10018;51.230;7.860;2022-07-23T07:27:32;17.53;;;12.73;;
19733;SDS011;10018;51.230;7.860;2022-07-23T07:29:57;21.17;;;13.83;;
19733;SDS011;10018;51.230;7.860;2022-07-23T07:32:23;17.47;;;11.97;;
19733;SDS011;10018;51.230;7.860;2022-07-23T07:34:48;16.03;;;11.63;;
19733;SDS011;10018;51.230;7.860;2022-07-23T07:37:14;18.77;;;12.37;;
19733;SDS011;10018;51.230;7.860;2022-07-23T07:39:39;18.73;;;11.20;;
19733;SDS011;10018;51.230;7.860;2022-07-23T07:42:05;15.70;;;11.03;;
19733;SDS011;10018;51.230;7.860;2022-07-23T07:44:30;14.97;;;10.63;;
19733;SDS011;10018;51.230;7.860;2022-07-23T07:46:56;15.80;;;10.23;;
19733;SDS011;10018;51.230;7.860;2022-07-23T07:49:21;14.67;;;9.30;;
19733;SDS011;10018;51.230;7.860;2022-07-23T07:51:47;13.43;;;8.73;;
19733;SDS011;10018;51.230;7.860;2022-07-23T07:54:13;14.87;;;9.23;;
19733;SDS011;10018;51.230;7.860;2022-07-23T07:56:38;15.13;;;8.67;;
19733;SDS011;10018;51.230;7.860;2022-07-23T07:59:04;12.27;;;7.53;;
19733;SDS011;10018;51.230;7.860;2022-07-23T08:01:29;12.03;;;7.40;;
19733;SDS011;10018;51.230;7.860;2022-07-23T08:03:55;10.73;;;7.27;;
19733;SDS011;10018;51.230;7.860;2022-07-23T08:06:20;10.70;;;7.43;;
19733;SDS011;10018;51.230;7.860;2022-07-23T08:08:46;10.70;;;6.80;;
19733;SDS011;10018;51.230;7.860;2022-07-23T08:11:11;12.27;;;8.27;;
19733;SDS011;10018;51.230;7.860;2022-07-23T08:13:37;11.00;;;7.67;;
19733;SDS011;10018;51.230;7.860;2022-07-23T08:16:02;12.80;;;7.30;;
19733;SDS011;10018;51.230;7.860;2022-07-23T08:18:29;15.83;;;8.20;;
19733;SDS011;10018;51.230;7.860;2022-07-23T08:20:54;11.47;;;7.87;;
19733;SDS011;10018;51.230;7.860;2022-07-23T08:23:20;11.13;;;7.30;;
19733;SDS011;10018;51.230;7.860;2022-07-23T08:25:46;13.43;;;8.50;;
19733;SDS011;10018;51.230;7.860;2022-07-23T08:28:12;13.13;;;7.63;;
19733;SDS011;10018;51.230;7.860;2022-07-23T08:30:40;11.63;;;8.10;;
19733;SDS011;10018;51.230;7.860;2022-07-23T08:33:08;10.50;;;7.80;;
19733;SDS011;10018;51.230;7.860;2022-07-23T08:35:47;12.87;;;8.47;;
19733;SDS011;10018;51.230;7.860;2022-07-23T08:38:16;11.33;;;8.30;;
19733;SDS011;10018;51.230;7.860;2022-07-23T08:40:43;13.80;;;8.27;;
19733;SDS011;10018;51.230;7.860;2022-07-23T08:43:18;11.30;;;7.97;;
19733;SDS011;10018;51.230;7.860;2022-07-23T08:45:49;10.97;;;7.90;;
19733;SDS011;10018;51.230;7.860;2022-07-23T08:48:17;12.10;;;8.13;;
19733;SDS011;10018;51.230;7.860;2022-07-23T08:50:45;15.73;;;9.53;;
19733;SDS011;10018;51.230;7.860;2022-07-23T08:53:12;12.77;;;8.07;;
19733;SDS011;10018;51.230;7.860;2022-07-23T08:55:39;14.57;;;8.73;;
19733;SDS011;10018;51.230;7.860;2022-07-23T08:58:05;16.80;;;10.90;;
19733;SDS011;10018;51.230;7.860;2022-07-23T09:00:31;16.87;;;11.80;;
19733;SDS011;10018;51.230;7.860;2022-07-23T09:02:57;16.30;;;9.67;;
19733;SDS011;10018;51.230;7.860;2022-07-23T09:05:23;13.90;;;9.70;;
19733;SDS011;10018;51.230;7.860;2022-07-23T09:10:43;13.13;;;8.47;;
19733;SDS011;10018;51.230;7.860;2022-07-23T09:13:26;10.10;;;7.63;;
19733;SDS011;10018;51.230;7.860;2022-07-23T09:15:57;11.87;;;7.20;;
19733;SDS011;10018;51.230;7.860;2022-07-23T09:18:28;10.53;;;7.23;;
19733;SDS011;10018;51.230;7.860;2022-07-23T09:21:07;11.60;;;7.80;;
19733;SDS011;10018;51.230;7.860;2022-07-23T09:26:19;11.87;;;8.70;;
19733;SDS011;10018;51.230;7.860;2022-07-23T09:28:48;11.23;;;8.23;;
19733;SDS011;10018;51.230;7.860;2022-07-23T09:31:17;12.50;;;7.70;;
19733;SDS011;10018;51.230;7.860;2022-07-23T09:33:43;10.10;;;7.27;;
19733;SDS011;10018;51.230;7.860;2022-07-23T09:36:08;9.23;;;6.67;;
19733;SDS011;10018;51.230;7.860;2022-07-23T09:38:34;10.50;;;6.73;;
19733;SDS011;10018;51.230;7.860;2022-07-23T09:41:12;9.87;;;6.83;;
19733;SDS011;10018;51.230;7.860;2022-07-23T09:43:38;10.03;;;6.63;;
19733;SDS011;10018;51.230;7.860;2022-07-23T09:46:16;11.23;;;6.77;;
19733;SDS011;10018;51.230;7.860;2022-07-23T09:48:43;11.63;;;6.93;;
19733;SDS011;10018;51.230;7.860;2022-07-23T09:51:08;10.20;;;6.27;;
19733;SDS011;10018;51.230;7.860;2022-07-23T09:53:34;9.87;;;6.77;;
19733;SDS011;10018;51.230;7.860;2022-07-23T09:55:59;11.30;;;6.90;;
19733;SDS011;10018;51.230;7.860;2022-07-23T09:58:25;9.83;;;6.53;;
19733;SDS011;10018;51.230;7.860;2022-07-23T10:00:52;9.03;;;6.03;;
19733;SDS011;10018;51.230;7.860;2022-07-23T10:03:18;8.60;;;6.30;;
19733;SDS011;10018;51.230;7.860;2022-07-23T10:05:44;8.50;;;6.00;;
19733;SDS011;10018;51.230;7.860;2022-07-23T10:08:13;11.10;;;6.17;;
19733;SDS011;10018;51.230;7.860;2022-07-23T10:10:42;8.80;;;6.37;;
19733;SDS011;10018;51.230;7.860;2022-07-23T10:13:11;8.40;;;6.37;;
19733;SDS011;10018;51.230;7.860;2022-07-23T10:16:11;9.23;;;6.40;;
19733;SDS011;10018;51.230;7.860;2022-07-23T10:18:37;8.57;;;5.87;;
19733;SDS011;10018;51.230;7.860;2022-07-23T10:21:05;9.60;;;5.80;;
19733;SDS011;10018;51.230;7.860;2022-07-23T10:29:16;9.53;;;5.97;;
19733;SDS011;10018;51.230;7.860;2022-07-23T10:34:30;9.07;;;5.43;;
19733;SDS011;10018;51.230;7.860;2022-07-23T10:37:14;9.97;;;6.70;;
19733;SDS011;10018;51.230;7.860;2022-07-23T10:39:48;7.70;;;6.30;;
19733;SDS011;10018;51.230;7.860;2022-07-23T10:42:44;9.53;;;6.47;;
19733;SDS011;10018;51.230;7.860;2022-07-23T10:47:54;8.53;;;6.80;;
19733;SDS011;10018;51.230;7.860;2022-07-23T10:50:25;10.83;;;6.90;;
19733;SDS011;10018;51.230;7.860;2022-07-23T10:58:05;8.57;;;6.50;;
19733;SDS011;10018;51.230;7.860;2022-07-23T11:00:34;9.20;;;6.67;;
19733;SDS011;10018;51.230;7.860;2022-07-23T11:03:02;8.23;;;6.93;;
19733;SDS011;10018;51.230;7.860;2022-07-23T11:05:39;10.00;;;7.10;;
19733;SDS011;10018;51.230;7.860;2022-07-23T11:32:03;13.17;;;9.70;;
19733;SDS011;10018;51.230;7.860;2022-07-23T11:37:06;15.30;;;10.03;;
19733;SDS011;10018;51.230;7.860;2022-07-23T11:39:34;10.97;;;9.67;;
19733;SDS011;10018;51.230;7.860;2022-07-23T11:42:01;11.23;;;9.80;;
19733;SDS011;10018;51.230;7.860;2022-07-23T11:44:32;13.30;;;11.53;;
19733;SDS011;10018;51.230;7.860;2022-07-23T11:47:00;13.03;;;10.57;;
19733;SDS011;10018;51.230;7.860;2022-07-23T11:49:36;12.23;;;9.73;;
19733;SDS011;10018;51.230;7.860;2022-07-23T11:52:10;12.90;;;10.20;;
19733;SDS011;10018;51.230;7.860;2022-07-23T11:57:18;11.47;;;9.47;;
19733;SDS011;10018;51.230;7.860;2022-07-23T11:59:45;12.23;;;9.80;;
19733;SDS011;10018;51.230;7.860;2022-07-23T12:02:14;10.73;;;9.23;;
19733;SDS011;10018;51.230;7.860;2022-07-23T12:04:44;11.80;;;9.63;;
19733;SDS011;10018;51.230;7.860;2022-07-23T12:07:30;10.13;;;8.97;;
19733;SDS011;10018;51.230;7.860;2022-07-23T12:10:03;9.60;;;8.23;;
19733;SDS011;10018;51.230;7.860;2022-07-23T12:12:43;9.83;;;8.43;;
19733;SDS011;10018;51.230;7.860;2022-07-23T12:15:28;11.97;;;8.23;;
19733;SDS011;10018;51.230;7.860;2022-07-23T12:17:57;9.00;;;7.40;;
19733;SDS011;10018;51.230;7.860;2022-07-23T12:20:30;13.07;;;8.73;;
19733;SDS011;10018;51.230;7.860;2022-07-23T12:23:01;11.43;;;9.87;;
19733;SDS011;10018;51.230;7.860;2022-07-23T12:25:33;11.90;;;9.00;;
19733;SDS011;10018;51.230;7.860;2022-07-23T12:28:13;10.17;;;8.17;;
19733;SDS011;10018;51.230;7.860;2022-07-23T12:30:42;9.70;;;7.77;;
19733;SDS011;10018;51.230;7.860;2022-07-23T12:33:10;11.37;;;8.87;;
19733;SDS011;10018;51.230;7.860;2022-07-23T12:36:03;9.67;;;8.40;;
19733;SDS011;10018;51.230;7.860;2022-07-23T12:38:39;8.90;;;7.00;;
19733;SDS011;10018;51.230;7.860;2022-07-23T12:41:06;8.40;;;6.90;;
19733;SDS011;10018;51.230;7.860;2022-07-23T12:43:33;8.50;;;7.27;;
19733;SDS011;10018;51.230;7.860;2022-07-23T12:46:11;13.67;;;8.70;;
19733;SDS011;10018;51.230;7.860;2022-07-23T12:51:21;9.97;;;7.67;;
19733;SDS011;10018;51.230;7.860;2022-07-23T12:54:07;9.50;;;7.13;;
19733;SDS011;10018;51.230;7.860;2022-07-23T12:56:35;8.90;;;7.90;;
19733;SDS011;10018;51.230;7.860;2022-07-23T12:59:06;9.10;;;7.60;;
19733;SDS011;10018;51.230;7.860;2022-07-23T13:01:37;9.30;;;8.07;;
19733;SDS011;10018;51.230;7.860;2022-07-23T13:04:07;9.33;;;7.70;;
19733;SDS011;10018;51.230;7.860;2022-07-23T13:06:34;9.43;;;7.87;;
19733;SDS011;10018;51.230;7.860;2022-07-23T13:09:02;8.43;;;7.50;;
19733;SDS011;10018;51.230;7.860;2022-07-23T13:11:31;10.50;;;7.80;;
19733;SDS011;10018;51.230;7.860;2022-07-23T13:13:57;10.03;;;8.40;;
19733;SDS011;10018;51.230;7.860;2022-07-23T13:16:25;10.37;;;8.60;;
19733;SDS011;10018;51.230;7.860;2022-07-23T13:18:51;12.77;;;8.63;;
19733;SDS011;10018;51.230;7.860;2022-07-23T13:21:17;11.20;;;7.43;;
19733;SDS011;10018;51.230;7.860;2022-07-23T13:23:42;8.60;;;7.07;;
19733;SDS011;10018;51.230;7.860;2022-07-23T13:26:08;8.27;;;7.33;;
19733;SDS011;10018;51.230;7.860;2022-07-23T13:28:34;9.70;;;7.60;;
19733;SDS011;10018;51.230;7.860;2022-07-23T13:31:00;8.37;;;7.47;;
19733;SDS011;10018;51.230;7.860;2022-07-23T13:33:25;11.33;;;7.27;;
19733;SDS011;10018;51.230;7.860;2022-07-23T13:35:51;9.43;;;7.30;;
19733;SDS011;10018;51.230;7.860;2022-07-23T13:38:18;8.33;;;6.77;;
19733;SDS011;10018;51.230;7.860;2022-07-23T13:40:45;8.27;;;7.30;;
19733;SDS011;10018;51.230;7.860;2022-07-23T13:43:13;8.57;;;7.20;;
19733;SDS011;10018;51.230;7.860;2022-07-23T13:45:41;8.03;;;7.23;;
19733;SDS011;10018;51.230;7.860;2022-07-23T13:48:09;7.80;;;6.40;;
19733;SDS011;10018;51.230;7.860;2022-07-23T13:50:36;8.00;;;6.50;;
19733;SDS011;10018;51.230;7.860;2022-07-23T13:53:06;7.03;;;6.33;;
19733;SDS011;10018;51.230;7.860;2022-07-23T13:55:34;9.30;;;6.53;;
19733;SDS011;10018;51.230;7.860;2022-07-23T13:58:00;8.77;;;6.00;;
19733;SDS011;10018;51.230;7.860;2022-07-23T14:00:26;8.00;;;5.93;;
19733;SDS011;10018;51.230;7.860;2022-07-23T14:02:52;8.90;;;5.97;;
19733;SDS011;10018;51.230;7.860;2022-07-23T14:05:18;8.43;;;6.27;;
19733;SDS011;10018;51.230;7.860;2022-07-23T14:07:44;7.97;;;5.80;;
19733;SDS011;10018;51.230;7.860;2022-07-23T14:10:11;7.93;;;5.83;;
19733;SDS011;10018;51.230;7.860;2022-07-23T14:12:37;7.00;;;5.30;;
19733;SDS011;10018;51.230;7.860;2022-07-23T14:15:04;6.37;;;5.13;;
19733;SDS011;10018;51.230;7.860;2022-07-23T14:17:30;7.47;;;5.10;;
19733;SDS011;10018;51.230;7.860;2022-07-23T14:19:57;6.40;;;5.40;;
19733;SDS011;10018;51.230;7.860;2022-07-23T14:22:23;8.40;;;5.70;;
19733;SDS011;10018;51.230;7.860;2022-07-23T14:24:49;5.77;;;5.03;;
19733;SDS011;10018;51.230;7.860;2022-07-23T14:27:14;6.73;;;5.37;;
19733;SDS011;10018;51.230;7.860;2022-07-23T14:29:40;6.13;;;5.17;;
19733;SDS011;10018;51.230;7.860;2022-07-23T14:32:06;6.77;;;5.37;;
19733;SDS011;10018;51.230;7.860;2022-07-23T14:34:31;7.57;;;5.47;;
19733;SDS011;10018;51.230;7.860;2022-07-23T14:36:57;6.50;;;5.40;;
19733;SDS011;10018;51.230;7.860;2022-07-23T14:39:24;8.00;;;5.70;;
19733;SDS011;10018;51.230;7.860;2022-07-23T14:41:50;6.93;;;5.60;;
19733;SDS011;10018;51.230;7.860;2022-07-23T14:44:16;6.93;;;5.50;;
19733;SDS011;10018;51.230;7.860;2022-07-23T14:46:41;8.90;;;5.80;;
19733;SDS011;10018;51.230;7.860;2022-07-23T14:49:07;15.37;;;10.50;;
19733;SDS011;10018;51.230;7.860;2022-07-23T14:51:32;28.83;;;22.27;;
19733;SDS011;10018;51.230;7.860;2022-07-23T14:53:58;7.73;;;5.60;;
19733;SDS011;10018;51.230;7.860;2022-07-23T14:56:23;6.27;;;5.53;;
19733;SDS011;10018;51.230;7.860;2022-07-23T14:58:49;7.87;;;5.27;;
19733;SDS011;10018;51.230;7.860;2022-07-23T15:01:14;8.37;;;5.60;;
19733;SDS011;10018;51.230;7.860;2022-07-23T15:03:40;5.70;;;5.10;;
19733;SDS011;10018;51.230;7.860;2022-07-23T15:06:05;8.87;;;6.20;;
19733;SDS011;10018;51.230;7.860;2022-07-23T15:08:31;13.30;;;11.57;;
19733;SDS011;10018;51.230;7.860;2022-07-23T15:10:57;6.80;;;5.70;;
19733;SDS011;10018;51.230;7.860;2022-07-23T15:13:22;7.50;;;6.23;;
19733;SDS011;10018;51.230;7.860;2022-07-23T15:15:48;6.03;;;5.43;;
19733;SDS011;10018;51.230;7.860;2022-07-23T15:18:13;8.40;;;5.47;;
19733;SDS011;10018;51.230;7.860;2022-07-23T15:20:40;9.47;;;5.20;;
19733;SDS011;10018;51.230;7.860;2022-07-23T15:23:05;7.37;;;6.40;;
19733;SDS011;10018;51.230;7.860;2022-07-23T15:25:31;6.13;;;5.00;;